Time;durP1;ratioP1;P1;durP2;ratioP2;P2;SDS_P1;SDS_P2;PMS_P1;PMS_P2;Temp;Humidity;BMP_temperature;BMP_pressure;BME280_temperature;BME280_humidity;BME280_pressure;Samples;Min_cycle;Max_cycle;Signal;HPM_P1;HPM_P2
2022/12/21 06:01:31;;;;;;;12.60;7.35;;;8.30;99.90;;;;;;5825590;23;20023;-76
2022/12/21 06:03:57;;;;;;;12.80;6.07;;;8.30;99.90;;;;;;4901288;29;20294;-75
2022/12/21 06:06:23;;;;;;;13.43;6.93;;;8.30;99.90;;;;;;4879018;29;20032;-75
2022/12/21 06:08:49;;;;;;;15.07;7.20;;;8.30;99.90;;;;;;4896399;29;20107;-75
2022/12/21 06:11:20;;;;;;;14.63;7.63;;;8.30;99.90;;;;;;4909679;29;20191;-75
2022/12/21 06:13:47;;;;;;;13.70;6.53;;;8.30;99.90;;;;;;4909862;29;20031;-74
2022/12/21 06:16:31;;;;;;;13.23;7.15;;;8.30;99.90;;;;;;4894534;29;20060;-74
2022/12/21 06:19:01;;;;;;;14.43;6.80;;;8.30;99.90;;;;;;4877217;29;20052;-74
2022/12/21 06:21:27;;;;;;;13.75;6.43;;;8.30;99.90;;;;;;4884336;29;20369;-75
2022/12/21 06:23:52;;;;;;;10.07;6.00;;;8.30;99.90;;;;;;4890952;29;20051;-75
2022/12/21 06:26:19;;;;;;;13.73;5.88;;;8.40;99.90;;;;;;4890541;29;20088;-74
2022/12/21 06:28:51;;;;;;;15.85;6.03;;;8.40;99.90;;;;;;4891157;29;20037;-74
2022/12/21 06:31:17;;;;;;;9.88;5.25;;;8.40;99.90;;;;;;4890364;29;20044;-76
2022/12/21 06:33:44;;;;;;;12.20;6.15;;;8.40;99.90;;;;;;4891173;29;20088;-74
2022/12/21 06:36:10;;;;;;;13.40;5.75;;;8.40;99.90;;;;;;4900339;29;20036;-75
2022/12/21 06:38:36;;;;;;;10.90;5.53;;;8.50;99.90;;;;;;4909879;29;20243;-76
2022/12/21 06:41:08;;;;;;;8.32;5.28;;;8.40;99.90;;;;;;4908965;29;20021;-77
2022/12/21 06:43:36;;;;;;;13.60;6.22;;;8.40;99.90;;;;;;4892680;29;20235;-78
2022/12/21 06:46:04;;;;;;;10.73;5.50;;;8.40;99.90;;;;;;4908917;29;20048;-76
2022/12/21 06:48:31;;;;;;;14.93;5.90;;;8.40;99.90;;;;;;4909332;29;20071;-77
2022/12/21 06:50:59;;;;;;;11.15;5.30;;;8.50;99.90;;;;;;4908976;29;20093;-76
2022/12/21 06:53:28;;;;;;;11.30;6.00;;;8.50;99.90;;;;;;4909220;29;20077;-77
2022/12/21 06:56:05;;;;;;;12.05;5.28;;;8.60;99.90;;;;;;4909521;29;20041;-78
2022/12/21 06:58:31;;;;;;;11.77;5.72;;;8.50;99.90;;;;;;4896373;29;20192;-78
2022/12/21 07:01:05;;;;;;;13.05;6.18;;;8.60;99.90;;;;;;4890789;29;20065;-78
2022/12/21 07:03:31;;;;;;;18.88;8.93;;;8.60;99.90;;;;;;4873505;29;20353;-78
2022/12/21 07:05:57;;;;;;;26.98;16.80;;;8.60;99.90;;;;;;4890206;29;20033;-79
2022/12/21 07:08:23;;;;;;;12.38;6.35;;;8.70;99.90;;;;;;4873827;29;20033;-79
2022/12/21 07:10:49;;;;;;;12.60;6.40;;;8.70;99.90;;;;;;4890016;29;20035;-75
2022/12/21 07:13:15;;;;;;;13.45;6.35;;;8.70;99.90;;;;;;4889624;29;20055;-80
2022/12/21 07:15:40;;;;;;;10.75;6.13;;;8.70;99.90;;;;;;4873777;29;20033;-76
2022/12/21 07:18:06;;;;;;;13.48;5.68;;;8.80;99.90;;;;;;4889167;29;20052;-77
2022/12/21 07:20:35;;;;;;;8.73;3.63;;;8.80;99.90;;;;;;4889810;29;20044;-76
2022/12/21 07:23:01;;;;;;;8.65;3.70;;;8.90;99.90;;;;;;4889386;29;20029;-75
2022/12/21 07:25:27;;;;;;;7.03;3.92;;;8.90;99.90;;;;;;4873563;29;20101;-75
2022/12/21 07:27:54;;;;;;;8.85;4.88;;;9.00;99.90;;;;;;4890072;29;20086;-75
2022/12/21 07:30:20;;;;;;;6.37;3.13;;;9.20;99.90;;;;;;4889641;29;20068;-75
2022/12/21 07:32:46;;;;;;;12.98;5.53;;;9.40;99.90;;;;;;4889828;29;20267;-76
2022/12/21 07:35:12;;;;;;;6.95;3.53;;;9.50;99.90;;;;;;4872574;29;20029;-76
2022/12/21 07:37:37;;;;;;;11.48;3.70;;;9.50;99.90;;;;;;4889949;29;20041;-76
2022/12/21 07:40:05;;;;;;;8.40;3.25;;;9.60;99.90;;;;;;4889040;29;20040;-75
2022/12/21 07:42:31;;;;;;;7.68;2.10;;;9.60;99.90;;;;;;4889500;29;20314;-77
2022/12/21 07:45:17;;;;;;;4.38;1.60;;;9.80;99.90;;;;;;4872633;29;20029;-76
2022/12/21 07:47:47;;;;;;;;;;;10.00;99.90;;;;;;4873450;29;20033;-76
2022/12/21 07:50:13;;;;;;;7.38;3.78;;;10.10;99.90;;;;;;4888586;29;20185;-76
2022/12/21 07:52:39;;;;;;;4.95;1.67;;;10.20;99.90;;;;;;4889823;29;20068;-75
2022/12/21 07:55:05;;;;;;;5.28;2.40;;;10.30;99.90;;;;;;4872742;29;20036;-74
2022/12/21 07:57:31;;;;;;;4.75;2.08;;;10.30;99.90;;;;;;4884360;29;20025;-76
2022/12/21 07:59:57;;;;;;;7.40;3.25;;;10.40;99.90;;;;;;4870701;29;20029;-78
2022/12/21 08:02:23;;;;;;;9.43;3.47;;;10.40;99.90;;;;;;4870253;29;20226;-77
2022/12/21 08:04:49;;;;;;;4.65;1.92;;;10.50;99.90;;;;;;4869643;29;20113;-77
2022/12/21 08:07:15;;;;;;;11.82;5.60;;;10.50;99.90;;;;;;4870358;29;20026;-76
2022/12/21 08:09:40;;;;;;;5.13;1.90;;;10.50;99.90;;;;;;4875994;29;20036;-76
2022/12/21 08:12:06;;;;;;;4.20;1.50;;;10.50;99.90;;;;;;4871988;29;20318;-75
2022/12/21 08:14:32;;;;;;;3.85;1.23;;;10.50;99.90;;;;;;4889014;29;20114;-76
2022/12/21 08:16:59;;;;;;;5.20;1.80;;;10.50;99.90;;;;;;4872838;29;20100;-78
2022/12/21 08:19:25;;;;;;;2.47;1.40;;;10.50;99.90;;;;;;4871721;29;20025;-77
2022/12/21 08:21:56;;;;;;;8.23;2.65;;;10.40;99.90;;;;;;4872681;29;20029;-80
2022/12/21 08:24:22;;;;;;;3.65;1.58;;;10.40;99.90;;;;;;4888534;29;20402;-76
2022/12/21 08:26:48;;;;;;;5.57;2.63;;;10.40;99.90;;;;;;4888756;29;20092;-72
2022/12/21 08:29:14;;;;;;;4.45;1.70;;;10.40;99.90;;;;;;4888420;29;20033;-76
2022/12/21 08:31:46;;;;;;;4.53;1.15;;;10.40;99.90;;;;;;4887818;29;20055;-75
2022/12/21 08:34:11;;;;;;;7.25;3.75;;;10.40;99.90;;;;;;4863924;29;20033;-75
2022/12/21 08:36:38;;;;;;;9.48;4.15;;;10.40;99.90;;;;;;4888878;29;20040;-76
2022/12/21 08:39:15;;;;;;;2.85;1.23;;;10.40;99.90;;;;;;4888461;29;20052;-77
2022/12/21 08:42:13;;;;;;;5.25;1.73;;;10.40;99.90;;;;;;4883503;29;20323;-77
2022/12/21 08:44:46;;;;;;;4.22;1.80;;;10.40;99.90;;;;;;4852716;29;20033;-75
2022/12/21 08:47:16;;;;;;;4.47;1.63;;;10.40;99.90;;;;;;4852961;29;20105;-76
2022/12/21 08:49:45;;;;;;;3.38;1.40;;;10.50;99.90;;;;;;4855215;29;20041;-77
2022/12/21 08:52:17;;;;;;;4.82;1.80;;;10.40;99.90;;;;;;4869062;29;20029;-76
2022/12/21 08:54:43;;;;;;;4.88;1.50;;;10.50;99.90;;;;;;4869859;29;20034;-78
2022/12/21 08:57:09;;;;;;;4.45;1.50;;;10.50;99.90;;;;;;4871177;29;20085;-76
2022/12/21 08:59:34;;;;;;;3.08;1.15;;;10.50;99.90;;;;;;4871449;29;20037;-75
2022/12/21 09:02:00;;;;;;;3.80;1.40;;;10.60;99.90;;;;;;4888360;29;20045;-76
2022/12/21 09:04:32;;;;;;;3.95;1.42;;;10.60;99.90;;;;;;4871252;29;20037;-77
2022/12/21 09:07:00;;;;;;;4.88;1.40;;;10.60;99.90;;;;;;4871480;29;20021;-76
2022/12/21 09:09:34;;;;;;;;;;;10.70;99.90;;;;;;4888330;29;20028;-77
2022/12/21 09:12:11;;;;;;;4.80;1.33;;;10.70;99.90;;;;;;4887905;29;19919;-75
2022/12/21 09:14:40;;;;;;;4.18;1.55;;;10.70;99.90;;;;;;4887799;29;20157;-75
2022/12/21 09:17:05;;;;;;;4.28;1.50;;;10.80;99.90;;;;;;4887689;29;20089;-77
2022/12/21 09:19:40;;;;;;;4.65;1.55;;;10.70;99.90;;;;;;4856235;29;20242;-76
2022/12/21 09:22:06;;;;;;;4.20;1.50;;;10.70;99.90;;;;;;4887401;29;20029;-76
2022/12/21 09:24:35;;;;;;;4.30;1.90;;;10.70;99.90;;;;;;4871707;29;20033;-74
2022/12/21 09:27:01;;;;;;;8.13;2.10;;;10.70;99.90;;;;;;4888013;29;20037;-74
2022/12/21 09:29:26;;;;;;;5.10;2.00;;;10.70;99.90;;;;;;4887441;29;20120;-74
2022/12/21 09:31:52;;;;;;;3.28;1.23;;;10.70;99.90;;;;;;4888094;29;20039;-74
2022/12/21 09:34:18;;;;;;;6.45;1.77;;;10.70;99.90;;;;;;4887176;29;20159;-74
2022/12/21 09:36:45;;;;;;;2.45;1.30;;;10.70;99.90;;;;;;4887716;29;20025;-74
2022/12/21 09:39:10;;;;;;;6.63;1.92;;;10.70;99.90;;;;;;4887264;29;20061;-74
2022/12/21 09:41:59;;;;;;;5.65;1.20;;;10.70;99.90;;;;;;4888124;29;20037;-74
2022/12/21 09:44:32;;;;;;;2.67;1.20;;;10.70;99.90;;;;;;4874754;29;20033;-74
2022/12/21 09:47:02;;;;;;;2.88;1.05;;;10.70;99.90;;;;;;4891570;29;20250;-74
2022/12/21 09:49:44;;;;;;;5.28;1.27;;;10.80;99.90;;;;;;4891119;29;20077;-73
2022/12/21 09:52:33;;;;;;;2.65;1.10;;;10.80;99.90;;;;;;4891078;29;20148;-74
2022/12/21 09:55:05;;;;;;;2.70;1.30;;;10.90;99.90;;;;;;4891442;29;20033;-75
2022/12/21 09:57:34;;;;;;;3.47;1.45;;;11.00;99.90;;;;;;4885954;29;20108;-74
2022/12/21 10:00:01;;;;;;;5.63;1.80;;;11.00;99.90;;;;;;4872592;29;20065;-74
2022/12/21 10:02:51;;;;;;;4.90;2.00;;;11.00;99.90;;;;;;4871927;29;20101;-74
2022/12/21 10:05:51;;;;;;;2.88;1.50;;;11.00;99.90;;;;;;4872274;29;20037;-74
2022/12/21 10:08:50;;;;;;;3.63;1.45;;;11.10;99.90;;;;;;4872390;29;20102;-74
2022/12/21 10:11:28;;;;;;;3.30;2.03;;;11.30;99.90;;;;;;4873103;29;20048;-74
2022/12/21 10:14:23;;;;;;;4.30;2.27;;;11.20;99.90;;;;;;4878848;29;20042;-74
2022/12/21 10:17:06;;;;;;;3.92;1.10;;;11.40;99.90;;;;;;4880423;29;20025;-73
2022/12/21 10:19:41;;;;;;;2.53;1.20;;;11.40;99.90;;;;;;4857618;29;20049;-74
2022/12/21 10:22:21;;;;;;;3.35;1.23;;;11.40;99.90;;;;;;4874449;29;20029;-73
2022/12/21 10:24:57;;;;;;;3.00;1.30;;;11.50;99.90;;;;;;4872723;29;20034;-74
2022/12/21 10:27:33;;;;;;;5.50;1.92;;;11.40;99.90;;;;;;4871907;29;20362;-74
2022/12/21 10:29:59;;;;;;;3.17;1.60;;;11.40;99.90;;;;;;4872409;29;20244;-74
2022/12/21 10:32:33;;;;;;;3.95;1.40;;;11.40;99.90;;;;;;4872099;29;20025;-74
2022/12/21 10:35:17;;;;;;;4.15;1.42;;;11.50;99.90;;;;;;4879736;29;20115;-74
2022/12/21 10:37:52;;;;;;;3.88;1.50;;;11.50;99.90;;;;;;4890740;29;20077;-75
2022/12/21 10:40:20;;;;;;;2.40;1.20;;;11.60;99.90;;;;;;4890208;29;20036;-74
2022/12/21 10:42:49;;;;;;;5.75;1.38;;;11.60;99.90;;;;;;4890675;29;20029;-74
2022/12/21 10:45:16;;;;;;;4.60;1.40;;;11.80;99.90;;;;;;4890265;29;20056;-74
2022/12/21 10:47:44;;;;;;;2.35;1.33;;;11.80;99.90;;;;;;4890655;29;20025;-74
2022/12/21 10:50:30;;;;;;;2.75;1.27;;;11.80;99.90;;;;;;4890251;29;20036;-74
2022/12/21 10:52:58;;;;;;;3.35;1.50;;;11.80;99.90;;;;;;4890062;29;20049;-75
2022/12/21 10:55:35;;;;;;;3.13;1.40;;;11.70;99.90;;;;;;4889671;29;20032;-74
2022/12/21 10:58:01;;;;;;;4.13;1.70;;;11.80;99.90;;;;;;4880920;29;20029;-74
2022/12/21 11:00:29;;;;;;;4.82;1.55;;;11.90;99.90;;;;;;4854717;29;20030;-72
2022/12/21 11:02:57;;;;;;;2.67;1.38;;;11.90;99.90;;;;;;4871078;29;20064;-73
2022/12/21 11:05:23;;;;;;;;;;;11.90;99.90;;;;;;4854998;29;20199;-73
2022/12/21 11:07:48;;;;;;;4.38;2.10;;;11.90;99.90;;;;;;4871414;29;19915;-72
2022/12/21 11:10:45;;;;;;;3.03;1.60;;;11.90;99.90;;;;;;4854594;29;20101;-73
2022/12/21 11:13:12;;;;;;;2.92;1.50;;;12.00;99.90;;;;;;4870089;29;20136;-73
2022/12/21 11:15:38;;;;;;;2.80;1.27;;;12.20;99.90;;;;;;4871623;29;20034;-73
2022/12/21 11:18:05;;;;;;;3.38;1.52;;;12.30;99.90;;;;;;4854956;29;20269;-73
2022/12/21 11:20:32;;;;;;;3.42;1.20;;;12.40;99.90;;;;;;4870920;29;20037;-73
2022/12/21 11:23:01;;;;;;;4.63;1.90;;;12.30;99.90;;;;;;4871020;29;20045;-74
2022/12/21 11:25:31;;;;;;;4.03;1.80;;;12.50;99.90;;;;;;4871533;29;20030;-72
2022/12/21 11:28:01;;;;;;;3.22;1.38;;;12.60;99.90;;;;;;4854707;29;20111;-72
2022/12/21 11:30:31;;;;;;;3.25;1.40;;;12.90;99.90;;;;;;4870755;29;20296;-71
2022/12/21 11:32:59;;;;;;;2.58;1.05;;;13.90;99.90;;;;;;4871224;29;20041;-76
2022/12/21 11:35:36;;;;;;;3.13;0.98;;;15.10;99.90;;;;;;4850147;29;20144;-74
2022/12/21 11:38:06;;;;;;;3.28;0.88;;;15.80;99.90;;;;;;4890025;29;20041;-73
2022/12/21 11:40:32;;;;;;;2.08;0.80;;;16.60;99.90;;;;;;4889310;29;20060;-74
2022/12/21 11:43:03;;;;;;;2.15;1.08;;;17.30;99.90;;;;;;4889564;29;20044;-74
2022/12/21 11:45:57;;;;;;;2.67;1.00;;;17.50;99.90;;;;;;4872556;29;20207;-73
2022/12/21 11:48:32;;;;;;;3.28;1.20;;;17.30;99.90;;;;;;4888968;29;20100;-75
2022/12/21 11:51:01;;;;;;;2.17;1.05;;;17.30;99.90;;;;;;4872612;29;20041;-74
2022/12/21 11:53:48;;;;;;;4.53;1.50;;;18.40;99.90;;;;;;4872859;29;20039;-74
2022/12/21 11:56:28;;;;;;;2.63;1.02;;;18.70;99.60;;;;;;4889796;29;20361;-79
2022/12/21 11:59:00;;;;;;;2.88;1.00;;;19.40;98.40;;;;;;4857971;29;20323;-77
2022/12/21 12:01:55;;;;;;;1.60;0.80;;;20.30;97.00;;;;;;4857533;29;20351;-75
2022/12/21 12:04:49;;;;;;;2.28;1.13;;;19.80;96.50;;;;;;4889610;29;20041;-74
2022/12/21 12:07:39;;;;;;;2.60;1.30;;;18.20;98.40;;;;;;4873046;29;20020;-78
2022/12/21 12:10:48;;;;;;;2.63;0.90;;;17.10;99.90;;;;;;4889406;29;20073;-77
2022/12/21 12:13:23;;;;;;;2.80;1.10;;;16.50;99.90;;;;;;4880511;29;20033;-75
2022/12/21 12:16:31;;;;;;;2.42;0.90;;;16.20;99.90;;;;;;4889448;29;20033;-77
2022/12/21 12:19:05;;;;;;;2.67;1.23;;;16.70;99.90;;;;;;4887053;29;20230;-77
2022/12/21 12:21:56;;;;;;;5.22;1.35;;;17.50;99.90;;;;;;4867051;29;20030;-78
2022/12/21 12:24:47;;;;;;;2.33;0.90;;;18.60;99.70;;;;;;4848220;29;20040;-76
2022/12/21 12:27:55;;;;;;;1.98;0.80;;;19.70;98.40;;;;;;4872935;29;20215;-77
2022/12/21 12:30:24;;;;;;;4.82;1.40;;;20.50;96.20;;;;;;4872078;29;20033;-77
2022/12/21 12:33:05;;;;;;;2.30;1.23;;;20.90;95.60;;;;;;4888762;29;20040;-78
2022/12/21 12:36:09;;;;;;;1.77;0.70;;;20.50;94.80;;;;;;4871389;29;20029;-78
2022/12/21 12:39:23;;;;;;;2.20;0.82;;;19.30;96.10;;;;;;4839100;29;20210;-76
2022/12/21 12:41:55;;;;;;;3.25;1.33;;;18.80;98.00;;;;;;4836109;29;20053;-77
2022/12/21 12:44:54;;;;;;;1.73;0.85;;;19.30;96.40;;;;;;4869438;29;20056;-76
2022/12/21 12:47:39;;;;;;;2.50;1.20;;;19.10;96.70;;;;;;4821417;29;20086;-77
2022/12/21 12:50:27;;;;;;;3.33;0.70;;;18.60;97.20;;;;;;4831982;29;20057;-76
2022/12/21 12:53:00;;;;;;;2.15;0.70;;;18.60;97.20;;;;;;4814085;29;20055;-78
2022/12/21 12:55:37;;;;;;;2.08;0.70;;;18.60;97.60;;;;;;4818906;29;20221;-76
2022/12/21 12:58:20;;;;;;;2.33;0.70;;;19.00;97.30;;;;;;4831304;29;20243;-79
2022/12/21 13:00:46;;;;;;;1.17;0.50;;;19.30;96.50;;;;;;4815944;29;20445;-76
2022/12/21 13:03:20;;;;;;;2.80;0.85;;;18.30;97.20;;;;;;4831242;29;20045;-78
2022/12/21 13:06:13;;;;;;;1.83;0.75;;;17.50;98.60;;;;;;4831278;29;20043;-77
2022/12/21 13:09:10;;;;;;;1.75;0.90;;;16.70;99.90;;;;;;4828822;29;20082;-77
2022/12/21 13:12:00;;;;;;;1.73;0.70;;;16.00;99.90;;;;;;4823344;29;20039;-76
2022/12/21 13:14:41;;;;;;;2.00;0.75;;;15.30;99.90;;;;;;4815245;29;20491;-78
2022/12/21 13:17:19;;;;;;;2.03;0.82;;;14.90;99.90;;;;;;4830685;29;20107;-77
2022/12/21 13:19:46;;;;;;;2.55;0.90;;;14.60;99.90;;;;;;4831234;29;20030;-77
2022/12/21 13:22:16;;;;;;;1.60;0.90;;;14.40;99.90;;;;;;4830967;29;20042;-76
2022/12/21 13:25:03;;;;;;;2.38;1.00;;;14.10;99.90;;;;;;4854683;29;20071;-77
2022/12/21 13:28:00;;;;;;;2.25;0.70;;;14.10;99.90;;;;;;4865256;29;20057;-76
2022/12/21 13:30:28;;;;;;;3.30;1.00;;;14.10;99.90;;;;;;4815594;29;20322;-75
2022/12/21 13:32:58;;;;;;;2.47;1.25;;;13.90;99.90;;;;;;4885228;29;20037;-75
2022/12/21 13:35:55;;;;;;;2.83;0.60;;;13.80;99.90;;;;;;4887443;29;20133;-74
2022/12/21 13:38:57;;;;;;;1.75;0.80;;;13.60;99.90;;;;;;4874977;29;20041;-74
2022/12/21 13:41:43;;;;;;;2.22;0.73;;;13.60;99.90;;;;;;4837278;29;20049;-73
2022/12/21 13:44:29;;;;;;;1.65;0.73;;;13.70;99.90;;;;;;4868159;29;20037;-74
2022/12/21 13:46:56;;;;;;;1.80;1.15;;;13.90;99.90;;;;;;4869119;29;20060;-76
2022/12/21 13:49:52;;;;;;;2.97;1.02;;;14.00;99.90;;;;;;4884545;29;20025;-75
2022/12/21 13:52:42;;;;;;;1.98;0.80;;;14.00;99.90;;;;;;4878296;29;20037;-74
2022/12/21 13:55:30;;;;;;;2.88;0.80;;;13.80;99.90;;;;;;4852665;29;20142;-75
2022/12/21 13:58:38;;;;;;;2.55;0.88;;;13.70;99.90;;;;;;4877706;29;20035;-73
2022/12/21 14:01:33;;;;;;;3.35;0.88;;;13.90;99.90;;;;;;4887632;29;20037;-72
2022/12/21 14:04:10;;;;;;;1.77;0.70;;;14.00;99.90;;;;;;4869439;29;20072;-76
2022/12/21 14:06:56;;;;;;;2.33;0.73;;;13.90;99.90;;;;;;4887313;29;20188;-77
2022/12/21 14:09:51;;;;;;;2.83;1.33;;;14.10;99.90;;;;;;4887991;29;20409;-74
2022/12/21 14:12:32;;;;;;;2.55;1.00;;;14.10;99.90;;;;;;4870864;29;20112;-75
2022/12/21 14:15:46;;;;;;;4.88;1.77;;;14.00;99.90;;;;;;4887725;29;20033;-74
2022/12/21 14:18:16;;;;;;;3.15;1.25;;;13.70;99.90;;;;;;4872740;29;20052;-76
2022/12/21 14:20:42;;;;;;;4.82;2.67;;;13.60;99.90;;;;;;4886773;29;20579;-77
2022/12/21 14:23:31;;;;;;;6.97;2.05;;;13.80;99.90;;;;;;4886902;29;20333;-75
2022/12/21 14:25:58;;;;;;;3.55;1.35;;;14.00;99.90;;;;;;4886997;29;20036;-75
2022/12/21 14:28:44;;;;;;;7.15;2.70;;;14.40;99.90;;;;;;4886718;29;20025;-79
2022/12/21 14:31:10;;;;;;;4.18;1.48;;;14.90;99.90;;;;;;4872469;29;20036;-77
2022/12/21 14:33:43;;;;;;;2.83;1.02;;;15.10;99.90;;;;;;4889613;29;20371;-78
2022/12/21 14:36:18;;;;;;;2.38;1.00;;;15.40;99.90;;;;;;4855345;29;20022;-78
2022/12/21 14:39:00;;;;;;;2.08;0.90;;;15.40;99.90;;;;;;4840504;29;20117;-77
2022/12/21 14:41:37;;;;;;;2.70;0.93;;;15.20;99.90;;;;;;4840857;29;20303;-78
2022/12/21 14:44:09;;;;;;;2.17;0.93;;;15.30;99.90;;;;;;4872470;29;20034;-77
2022/12/21 14:46:39;;;;;;;2.17;0.70;;;15.30;99.90;;;;;;4855308;29;20053;-75
2022/12/21 14:49:27;;;;;;;4.03;1.23;;;15.10;99.90;;;;;;4871875;29;20029;-76
2022/12/21 14:51:57;;;;;;;6.82;1.55;;;14.70;99.90;;;;;;4871872;29;20044;-77
2022/12/21 14:54:28;;;;;;;5.03;1.60;;;14.10;99.90;;;;;;4872434;29;20269;-75
2022/12/21 14:57:09;;;;;;;43.88;9.82;;;13.80;99.90;;;;;;4880572;29;20097;-76
2022/12/21 14:59:41;;;;;;;6.90;2.13;;;13.40;99.90;;;;;;4882250;29;20098;-75
2022/12/21 15:02:28;;;;;;;7.20;2.58;;;13.10;99.90;;;;;;4867724;29;20049;-73
2022/12/21 15:04:57;;;;;;;2.85;1.20;;;12.80;99.90;;;;;;4882022;29;20109;-75
2022/12/21 15:07:48;;;;;;;3.40;1.50;;;12.50;99.90;;;;;;4871807;29;20033;-76
2022/12/21 15:10:25;;;;;;;3.03;1.77;;;12.30;99.90;;;;;;4854709;29;20319;-74
2022/12/21 15:12:53;;;;;;;6.85;2.55;;;12.10;99.90;;;;;;4871822;29;20043;-76
2022/12/21 15:15:34;;;;;;;3.97;1.90;;;12.00;99.90;;;;;;4855245;29;20644;-75
2022/12/21 15:18:22;;;;;;;4.13;1.77;;;11.90;99.90;;;;;;4871399;29;20429;-75
2022/12/21 15:20:51;;;;;;;3.53;1.42;;;11.80;99.90;;;;;;4870730;29;20112;-76
2022/12/21 15:23:22;;;;;;;3.42;1.52;;;11.70;99.90;;;;;;4871488;29;20037;-74
2022/12/21 15:26:13;;;;;;;3.22;1.48;;;11.70;99.90;;;;;;4870978;29;20086;-78
2022/12/21 15:28:41;;;;;;;4.82;1.98;;;11.70;99.90;;;;;;4871060;29;20034;-77
2022/12/21 15:31:24;;;;;;;;;;;11.70;99.90;;;;;;4871886;29;20029;-78
2022/12/21 15:33:51;;;;;;;4.90;2.05;;;11.80;99.90;;;;;;4870800;29;19908;-77
2022/12/21 15:36:29;;;;;;;3.95;1.77;;;11.80;99.90;;;;;;4872636;29;20187;-77
2022/12/21 15:38:55;;;;;;;;;;;11.70;99.90;;;;;;4890652;29;20303;-78
2022/12/21 15:41:29;;;;;;;3.75;1.80;;;11.70;99.90;;;;;;4872429;29;19923;-78
2022/12/21 15:44:01;;;;;;;4.43;2.20;;;11.70;99.90;;;;;;4873088;29;20274;-77
2022/12/21 15:46:48;;;;;;;3.65;1.40;;;11.80;99.90;;;;;;4873132;29;20061;-81
2022/12/21 15:49:32;;;;;;;3.22;1.40;;;11.80;99.90;;;;;;4889563;29;20112;-76
2022/12/21 15:51:58;;;;;;;2.83;1.10;;;11.90;99.90;;;;;;4889593;29;20226;-76
2022/12/21 15:54:25;;;;;;;6.95;1.58;;;11.90;99.90;;;;;;4889304;29;20025;-75
2022/12/21 15:56:59;;;;;;;2.83;1.50;;;11.90;99.90;;;;;;4888571;29;20025;-76
2022/12/21 15:59:36;;;;;;;3.13;1.40;;;11.90;99.90;;;;;;4870836;29;20029;-77
2022/12/21 16:02:06;;;;;;;3.28;1.55;;;11.80;99.90;;;;;;4870478;29;20057;-76
2022/12/21 16:04:33;;;;;;;3.55;1.77;;;11.70;99.90;;;;;;4853886;29;20037;-77
2022/12/21 16:06:59;;;;;;;4.93;2.50;;;11.60;99.90;;;;;;4853822;29;20295;-76
2022/12/21 16:09:27;;;;;;;5.43;2.40;;;11.40;99.90;;;;;;4853940;29;20071;-76
2022/12/21 16:11:53;;;;;;;9.98;3.88;;;11.30;99.90;;;;;;4869972;29;20073;-76
2022/12/21 16:14:21;;;;;;;10.73;5.13;;;11.10;99.90;;;;;;4870572;29;20146;-77
2022/12/21 16:16:51;;;;;;;;;;;11.00;99.90;;;;;;4870749;29;20025;-77
2022/12/21 16:19:22;;;;;;;11.32;4.72;;;11.00;99.90;;;;;;4853871;29;19930;-77
2022/12/21 16:21:48;;;;;;;12.88;8.25;;;10.90;99.90;;;;;;4871843;29;20029;-76
2022/12/21 16:24:14;;;;;;;10.20;5.60;;;10.90;99.90;;;;;;4872836;29;20045;-75
2022/12/21 16:26:42;;;;;;;8.52;4.80;;;11.00;99.90;;;;;;4869703;29;20037;-77
2022/12/21 16:29:24;;;;;;;7.35;3.80;;;11.10;99.90;;;;;;4853747;29;20045;-77
2022/12/21 16:31:50;;;;;;;6.47;3.30;;;11.20;99.90;;;;;;4869736;29;20029;-77
2022/12/21 16:34:31;;;;;;;5.35;2.85;;;11.30;99.90;;;;;;4872692;29;20109;-77
2022/12/21 16:37:09;;;;;;;5.55;3.03;;;11.30;99.90;;;;;;4888339;29;20098;-76
2022/12/21 16:39:36;;;;;;;5.25;2.00;;;11.40;99.90;;;;;;4887921;29;20223;-77
2022/12/21 16:42:03;;;;;;;5.00;1.85;;;11.40;99.90;;;;;;4888158;29;20036;-76
2022/12/21 16:44:39;;;;;;;3.53;1.70;;;11.50;99.90;;;;;;4888169;29;20041;-76
2022/12/21 16:47:16;;;;;;;2.88;1.35;;;11.60;99.90;;;;;;4871749;29;20068;-77
2022/12/21 16:49:43;;;;;;;3.45;2.22;;;11.60;99.90;;;;;;4888321;29;20100;-76
2022/12/21 16:52:41;;;;;;;5.22;1.95;;;11.60;99.90;;;;;;4871547;29;20052;-76
2022/12/21 16:55:22;;;;;;;3.17;1.67;;;11.60;99.90;;;;;;4871463;29;20059;-75
2022/12/21 16:57:53;;;;;;;3.47;1.70;;;11.60;99.90;;;;;;4852485;29;20087;-75
2022/12/21 17:00:23;;;;;;;6.47;2.58;;;11.50;99.90;;;;;;4852971;29;20097;-76
2022/12/21 17:02:53;;;;;;;3.75;1.40;;;11.50;99.90;;;;;;4869366;29;20037;-76
2022/12/21 17:05:28;;;;;;;3.15;1.50;;;11.40;99.90;;;;;;4869803;29;20034;-76
2022/12/21 17:07:56;;;;;;;2.75;1.58;;;11.40;99.90;;;;;;4869106;29;20212;-75
2022/12/21 17:10:24;;;;;;;3.13;1.23;;;11.40;99.90;;;;;;4869344;29;20041;-76
2022/12/21 17:13:14;;;;;;;4.53;1.00;;;11.40;99.90;;;;;;4869257;29;20047;-80
2022/12/21 17:15:43;;;;;;;2.92;1.60;;;11.40;99.90;;;;;;4868873;29;20504;-77
2022/12/21 17:18:36;;;;;;;3.67;1.42;;;11.30;99.90;;;;;;4869294;29;20034;-74
2022/12/21 17:21:22;;;;;;;3.03;1.60;;;11.20;99.90;;;;;;4869428;29;20029;-75
2022/12/21 17:23:58;;;;;;;2.97;1.70;;;11.10;99.90;;;;;;4868787;29;20063;-75
2022/12/21 17:26:29;;;;;;;9.05;6.18;;;11.00;99.90;;;;;;4852907;29;20255;-75
2022/12/21 17:28:54;;;;;;;6.50;3.42;;;10.90;99.90;;;;;;4868958;29;20115;-75
2022/12/21 17:31:20;;;;;;;5.38;2.40;;;10.80;99.90;;;;;;4869255;29;20037;-74
2022/12/21 17:33:46;;;;;;;3.72;1.92;;;10.80;99.90;;;;;;4869083;29;20192;-73
2022/12/21 17:36:14;;;;;;;3.75;2.20;;;10.70;99.90;;;;;;4886431;29;20029;-74
2022/12/21 17:38:45;;;;;;;4.60;2.38;;;10.60;99.90;;;;;;4887640;29;20029;-75
2022/12/21 17:41:13;;;;;;;5.25;2.80;;;10.60;99.90;;;;;;4888046;29;20096;-78
2022/12/21 17:43:39;;;;;;;4.65;3.03;;;10.50;99.90;;;;;;4887498;29;20052;-77
2022/12/21 17:46:14;;;;;;;5.40;2.67;;;10.50;99.90;;;;;;4871760;29;20037;-80
2022/12/21 17:48:43;;;;;;;4.60;2.10;;;10.40;99.90;;;;;;4887792;29;20045;-78
2022/12/21 17:51:23;;;;;;;4.07;2.00;;;10.50;99.90;;;;;;4887922;29;20179;-81
2022/12/21 17:53:49;;;;;;;5.18;2.40;;;10.50;99.90;;;;;;4887275;29;20041;-75
2022/12/21 17:56:21;;;;;;;4.18;1.95;;;10.60;99.90;;;;;;4887613;29;20036;-75
2022/12/21 17:58:47;;;;;;;3.58;1.80;;;10.60;99.90;;;;;;4887244;29;20054;-76
2022/12/21 18:01:16;;;;;;;4.63;1.80;;;10.60;99.90;;;;;;4888263;29;20072;-77
2022/12/21 18:03:44;;;;;;;4.65;2.42;;;10.60;99.90;;;;;;4873450;29;20231;-77
2022/12/21 18:06:16;;;;;;;3.77;1.93;;;10.60;99.90;;;;;;4896839;29;20048;-76
2022/12/21 18:08:42;;;;;;;3.00;1.52;;;10.70;99.90;;;;;;4891550;29;20025;-77
2022/12/21 18:11:14;;;;;;;4.25;2.08;;;10.70;99.90;;;;;;4891651;29;20072;-77
2022/12/21 18:13:40;;;;;;;3.25;1.80;;;10.60;99.90;;;;;;4873998;29;20025;-78
2022/12/21 18:16:26;;;;;;;7.28;5.18;;;10.60;99.90;;;;;;4891010;29;20037;-76
2022/12/21 18:18:55;;;;;;;4.88;3.00;;;10.50;99.90;;;;;;4890832;29;20192;-76
2022/12/21 18:21:22;;;;;;;3.78;2.22;;;10.40;99.90;;;;;;4890748;29;20045;-78
2022/12/21 18:23:57;;;;;;;6.32;3.08;;;10.40;99.90;;;;;;4890143;29;20029;-78
2022/12/21 18:26:23;;;;;;;3.95;1.90;;;10.50;99.90;;;;;;4874826;29;20032;-76
2022/12/21 18:28:52;;;;;;;4.65;2.22;;;10.50;99.90;;;;;;4890227;29;20380;-78
2022/12/21 18:31:21;;;;;;;4.97;2.83;;;10.70;99.90;;;;;;4890590;29;20044;-77
2022/12/21 18:33:53;;;;;;;4.90;1.67;;;10.70;99.90;;;;;;4889011;29;20028;-76
2022/12/21 18:36:22;;;;;;;3.78;1.90;;;10.70;99.90;;;;;;4890417;29;20040;-76
2022/12/21 18:38:49;;;;;;;4.85;2.60;;;10.80;99.90;;;;;;4873389;29;20040;-77
2022/12/21 18:41:18;;;;;;;5.72;2.63;;;10.70;99.90;;;;;;4890500;29;20041;-77
2022/12/21 18:43:44;;;;;;;4.93;2.60;;;10.60;99.90;;;;;;4873703;29;20040;-76
2022/12/21 18:46:12;;;;;;;5.55;2.80;;;10.50;99.90;;;;;;4871286;29;20096;-76
2022/12/21 18:48:39;;;;;;;4.80;2.90;;;10.30;99.90;;;;;;4889262;29;20092;-76
2022/12/21 18:51:15;;;;;;;6.20;3.65;;;10.20;99.90;;;;;;4890837;29;20033;-77
2022/12/21 18:53:41;;;;;;;8.20;4.68;;;10.10;99.90;;;;;;4890460;29;20159;-76
2022/12/21 18:56:10;;;;;;;6.88;4.25;;;10.00;99.90;;;;;;4887911;29;20036;-76
2022/12/21 18:58:38;;;;;;;7.40;4.40;;;9.90;99.90;;;;;;4888146;29;20044;-76
2022/12/21 19:01:17;;;;;;;6.47;3.80;;;10.00;99.90;;;;;;4890088;29;20040;-76
2022/12/21 19:03:44;;;;;;;5.80;3.63;;;9.90;99.90;;;;;;4889914;29;20041;-77
2022/12/21 19:06:12;;;;;;;4.88;2.72;;;9.80;99.90;;;;;;4858398;29;20035;-78
2022/12/21 19:08:46;;;;;;;6.22;3.25;;;9.80;99.90;;;;;;4873765;29;20199;-77
2022/12/21 19:11:16;;;;;;;4.90;3.00;;;9.70;99.90;;;;;;4890206;29;20031;-76
2022/12/21 19:13:43;;;;;;;4.20;2.90;;;9.70;99.90;;;;;;4889508;29;20036;-76
2022/12/21 19:16:34;;;;;;;8.35;3.45;;;9.70;99.90;;;;;;4889638;29;20029;-75
2022/12/21 19:19:03;;;;;;;5.80;3.22;;;9.70;99.90;;;;;;4889767;29;20092;-76
2022/12/21 19:21:35;;;;;;;5.72;3.40;;;9.70;99.90;;;;;;4890112;29;20049;-77
2022/12/21 19:24:17;;;;;;;7.10;3.40;;;9.70;99.90;;;;;;4888432;29;20045;-77